Time;durP1;ratioP1;P1;durP2;ratioP2;P2;SDS_P1;SDS_P2;PMS_P1;PMS_P2;Temp;Humidity;BMP_temperature;BMP_pressure;BME280_temperature;BME280_humidity;BME280_pressure;Samples;Min_cycle;Max_cycle;Signal;HPM_P1;HPM_P2
2022/02/17 00:00:09;;;;;;;0.75;0.43;;;;;;;10.56;82.37;95334.50;2072383;28;20267;-65
2022/02/17 00:01:11;;;;;;;1.00;0.60;;;;;;;10.55;82.44;95335.50;2063277;28;20214;-65
2022/02/17 00:02:13;;;;;;;1.83;0.50;;;;;;;10.48;82.95;95324.72;2070810;28;20193;-65
2022/02/17 00:03:14;;;;;;;0.90;0.60;;;;;;;10.47;82.88;95333.53;2072436;28;20546;-65
2022/02/17 00:04:16;;;;;;;0.70;0.50;;;;;;;10.52;82.78;95340.97;2071401;28;20237;-65
2022/02/17 00:05:17;;;;;;;0.70;0.40;;;;;;;10.51;82.95;95331.50;2063950;28;20228;-64
2022/02/17 00:06:19;;;;;;;1.10;0.50;;;;;;;10.42;83.74;95338.34;2071811;28;20672;-65
2022/02/17 00:07:20;;;;;;;0.70;0.50;;;;;;;10.40;83.55;95343.72;2077676;28;20227;-65
2022/02/17 00:08:23;;;;;;;0.70;0.50;;;;;;;10.44;83.53;95352.94;2077809;28;20204;-64
2022/02/17 00:09:24;;;;;;;0.70;0.50;;;;;;;10.32;83.93;95322.63;2072006;28;20218;-65
2022/02/17 00:10:27;;;;;;;0.70;0.40;;;;;;;10.45;83.71;95314.53;2072286;28;20206;-64
2022/02/17 00:11:29;;;;;;;0.70;0.50;;;;;;;10.46;83.52;95347.59;2072795;28;20201;-66
2022/02/17 00:12:31;;;;;;;0.70;0.50;;;;;;;10.41;83.93;95323.63;2072557;28;20645;-65
2022/02/17 00:13:32;;;;;;;0.90;0.50;;;;;;;10.40;84.08;95307.06;2072311;28;20197;-65
2022/02/17 00:14:33;;;;;;;0.70;0.40;;;;;;;10.43;83.52;95324.31;2071434;28;20229;-65
2022/02/17 00:15:35;;;;;;;0.70;0.50;;;;;;;10.53;83.30;95321.72;2071447;28;20595;-65
2022/02/17 00:16:37;;;;;;;0.70;0.50;;;;;;;10.45;83.47;95315.34;2072279;28;20201;-65
2022/02/17 00:17:38;;;;;;;0.70;0.50;;;;;;;10.46;83.84;95327.47;2071703;28;20197;-65
2022/02/17 00:18:40;;;;;;;0.80;0.50;;;;;;;10.45;83.99;95320.59;2071689;28;20201;-65
2022/02/17 00:19:41;;;;;;;1.45;0.50;;;;;;;10.40;83.78;95312.31;2071489;28;20233;-65
2022/02/17 00:20:43;;;;;;;0.80;0.50;;;;;;;10.40;84.48;95304.44;2071454;28;20204;-65
2022/02/17 00:21:45;;;;;;;0.70;0.50;;;;;;;10.12;84.97;95284.28;2071463;28;20194;-65
2022/02/17 00:22:47;;;;;;;0.95;0.70;;;;;;;10.15;85.54;95279.59;2072199;28;20202;-64
2022/02/17 00:23:49;;;;;;;1.08;0.60;;;;;;;10.22;86.09;95300.81;2072486;28;20243;-65
2022/02/17 00:24:51;;;;;;;0.70;0.50;;;;;;;10.15;86.75;95287.44;2071852;28;20221;-63
2022/02/17 00:25:53;;;;;;;0.93;0.82;;;;;;;10.07;88.28;95293.38;2072509;28;20197;-64
2022/02/17 00:26:55;;;;;;;0.80;0.60;;;;;;;9.94;89.27;95294.53;2072261;28;20194;-64
2022/02/17 00:27:56;;;;;;;0.70;0.45;;;;;;;9.93;89.51;95288.50;2071832;28;20205;-65
2022/02/17 00:28:59;;;;;;;1.30;0.70;;;;;;;9.70;90.67;95264.31;2071613;28;20657;-64
2022/02/17 00:30:02;;;;;;;0.88;0.52;;;;;;;9.82;90.72;95286.81;2072266;28;20198;-66
2022/02/17 00:31:04;;;;;;;0.90;0.50;;;;;;;9.82;90.83;95288.59;2072002;28;20201;-64
2022/02/17 00:32:06;;;;;;;1.00;0.68;;;;;;;9.70;91.02;95269.56;2071247;28;20198;-66
2022/02/17 00:33:08;;;;;;;0.70;0.50;;;;;;;9.75;91.62;95287.47;2070806;28;20660;-65
2022/02/17 00:34:10;;;;;;;1.10;0.50;;;;;;;9.62;92.34;95296.34;2070977;28;20194;-66
2022/02/17 00:35:12;;;;;;;0.70;0.47;;;;;;;9.55;92.38;95260.44;2072397;28;20197;-65
2022/02/17 00:36:14;;;;;;;0.85;0.60;;;;;;;9.56;92.42;95275.16;2071731;28;20201;-65
2022/02/17 00:37:15;;;;;;;0.70;0.60;;;;;;;9.53;92.89;95276.25;2071679;28;20547;-64
2022/02/17 00:38:17;;;;;;;0.70;0.40;;;;;;;9.57;94.04;95295.94;2070782;28;20198;-65
2022/02/17 00:39:20;;;;;;;1.23;0.50;;;;;;;9.52;94.08;95289.44;2071806;28;20224;-65
2022/02/17 00:40:21;;;;;;;0.70;0.50;;;;;;;9.55;94.32;95300.47;2072102;28;20288;-64
2022/02/17 00:41:24;;;;;;;0.70;0.50;;;;;;;9.37;94.92;95266.28;2071182;28;20688;-64
2022/02/17 00:42:25;;;;;;;0.70;0.50;;;;;;;9.47;95.08;95303.72;2071879;28;20198;-65
2022/02/17 00:43:27;;;;;;;0.90;0.60;;;;;;;9.37;96.26;95315.06;2072179;28;20210;-65
2022/02/17 00:44:29;;;;;;;0.70;0.50;;;;;;;9.38;96.44;95303.69;2071554;28;20227;-64
2022/02/17 00:45:30;;;;;;;0.70;0.40;;;;;;;9.31;96.95;95329.50;2072256;28;20194;-64
2022/02/17 00:46:32;;;;;;;1.25;0.60;;;;;;;9.29;96.29;95290.44;2071852;28;20204;-64
2022/02/17 00:47:33;;;;;;;0.65;0.40;;;;;;;9.36;96.75;95336.94;2071685;28;20197;-64
2022/02/17 00:48:35;;;;;;;0.68;0.40;;;;;;;9.37;96.42;95312.47;2070834;28;20203;-65
2022/02/17 00:49:37;;;;;;;0.60;0.50;;;;;;;9.35;97.10;95317.00;2070297;28;20229;-65
2022/02/17 00:50:39;;;;;;;0.70;0.50;;;;;;;9.30;97.32;95331.28;2071956;28;20197;-65
2022/02/17 00:51:41;;;;;;;0.70;0.40;;;;;;;9.27;97.96;95326.31;2071994;28;20198;-65
2022/02/17 00:52:42;;;;;;;0.70;0.40;;;;;;;9.22;98.57;95331.09;2069691;28;20201;-65
2022/02/17 00:53:44;;;;;;;1.10;0.50;;;;;;;9.17;99.25;95314.97;2070986;28;20194;-65
2022/02/17 00:54:47;;;;;;;0.80;0.60;;;;;;;9.11;99.70;95320.69;2071139;28;20232;-66
2022/02/17 00:55:49;;;;;;;0.70;0.40;;;;;;;9.13;99.77;95325.81;2071945;28;20201;-66
2022/02/17 00:56:51;;;;;;;1.45;0.55;;;;;;;9.08;100.00;95328.81;2071428;28;20607;-66
2022/02/17 00:57:52;;;;;;;0.70;0.50;;;;;;;9.00;100.00;95315.56;2072225;28;20206;-66
2022/02/17 00:58:53;;;;;;;0.70;0.50;;;;;;;9.03;100.00;95302.22;2072016;28;20201;-66
2022/02/17 00:59:55;;;;;;;0.80;0.50;;;;;;;9.01;100.00;95291.91;2071697;28;20268;-67
2022/02/17 01:00:56;;;;;;;0.70;0.50;;;;;;;8.94;100.00;95279.50;2071761;28;20217;-67
2022/02/17 01:02:00;;;;;;;2.20;0.50;;;;;;;8.90;100.00;95279.75;2072097;28;20229;-67
2022/02/17 01:03:02;;;;;;;2.03;0.50;;;;;;;8.93;100.00;95277.84;2071928;28;20236;-66
2022/02/17 01:04:04;;;;;;;0.70;0.50;;;;;;;8.90;100.00;95273.72;2071592;28;20198;-65
2022/02/17 01:05:06;;;;;;;0.70;0.50;;;;;;;8.93;100.00;95280.47;2070193;28;20193;-65
2022/02/17 01:06:08;;;;;;;0.70;0.50;;;;;;;8.86;100.00;95267.91;2071075;28;20585;-65
2022/02/17 01:07:09;;;;;;;1.08;0.50;;;;;;;8.82;100.00;95276.09;2071969;28;20202;-65
2022/02/17 01:08:11;;;;;;;0.88;0.50;;;;;;;8.85;100.00;95292.34;2070794;28;20198;-65
2022/02/17 01:09:14;;;;;;;4.35;0.60;;;;;;;8.87;100.00;95279.19;2068504;28;20226;-65
2022/02/17 01:10:15;;;;;;;0.90;0.47;;;;;;;8.87;100.00;95287.84;2071772;28;20205;-65
2022/02/17 01:11:17;;;;;;;0.70;0.50;;;;;;;8.88;100.00;95296.50;2071399;28;20678;-65
2022/02/17 01:12:18;;;;;;;2.25;0.50;;;;;;;8.84;100.00;95301.16;2071141;28;20815;-64
2022/02/17 01:13:22;;;;;;;3.00;0.55;;;;;;;8.78;100.00;95292.97;2071213;28;20198;-64
2022/02/17 01:14:24;;;;;;;0.77;0.50;;;;;;;8.83;100.00;95304.72;2070673;28;20443;-64
2022/02/17 01:15:26;;;;;;;0.60;0.40;;;;;;;8.86;100.00;95309.69;2071695;28;20209;-64
2022/02/17 01:16:28;;;;;;;1.42;0.50;;;;;;;8.86;100.00;95304.47;2071715;28;20193;-64
2022/02/17 01:17:30;;;;;;;1.88;0.50;;;;;;;8.86;100.00;95294.03;2071889;28;20201;-64
2022/02/17 01:18:31;;;;;;;0.70;0.50;;;;;;;8.83;100.00;95302.09;2068956;28;20198;-64
2022/02/17 01:19:33;;;;;;;1.00;0.50;;;;;;;8.87;100.00;95303.50;2068910;28;20217;-64
2022/02/17 01:20:35;;;;;;;0.60;0.40;;;;;;;8.96;100.00;95295.84;2070243;28;20255;-64
2022/02/17 01:21:36;;;;;;;0.70;0.50;;;;;;;8.90;100.00;95281.56;2071749;28;20259;-64
2022/02/17 01:22:38;;;;;;;2.35;0.68;;;;;;;8.94;100.00;95279.50;2075093;28;20198;-64
2022/02/17 01:23:39;;;;;;;1.48;0.60;;;;;;;8.98;100.00;95275.69;2075264;28;20209;-64
2022/02/17 01:24:41;;;;;;;0.60;0.40;;;;;;;8.88;100.00;95266.00;2071501;28;20465;-64
2022/02/17 01:25:43;;;;;;;3.58;0.60;;;;;;;8.95;100.00;95261.09;2070471;28;20209;-64
2022/02/17 01:26:45;;;;;;;0.60;0.50;;;;;;;8.97;100.00;95274.84;2071070;28;20209;-64
2022/02/17 01:27:47;;;;;;;0.70;0.50;;;;;;;8.99;100.00;95293.81;2071811;28;20582;-64
2022/02/17 01:28:48;;;;;;;0.70;0.50;;;;;;;8.93;100.00;95293.50;2071834;28;20194;-64
2022/02/17 01:29:50;;;;;;;0.80;0.40;;;;;;;8.94;100.00;95289.94;2070703;28;20319;-64
2022/02/17 01:30:51;;;;;;;0.70;0.50;;;;;;;8.95;100.00;95286.38;2070870;28;20649;-65
2022/02/17 01:31:53;;;;;;;0.80;0.50;;;;;;;8.91;100.00;95291.03;2070942;28;20747;-64
2022/02/17 01:32:54;;;;;;;0.68;0.50;;;;;;;8.91;100.00;95301.47;2071314;28;20579;-65
2022/02/17 01:33:56;;;;;;;0.70;0.50;;;;;;;8.85;100.00;95287.13;2068955;28;20200;-63
2022/02/17 01:34:58;;;;;;;0.60;0.50;;;;;;;8.79;100.00;95274.59;2070376;28;20619;-64
2022/02/17 01:36:00;;;;;;;0.73;0.50;;;;;;;8.91;100.00;95296.25;2071628;28;20202;-64
2022/02/17 01:37:02;;;;;;;1.25;0.50;;;;;;;8.80;100.00;95283.25;2069764;28;20208;-63
2022/02/17 01:38:04;;;;;;;0.70;0.50;;;;;;;8.91;100.00;95304.91;2070974;28;20201;-63
2022/02/17 01:39:05;;;;;;;0.93;0.55;;;;;;;8.92;100.00;95297.91;2070694;28;20213;-62
2022/02/17 01:40:10;;;;;;;0.70;0.50;;;;;;;8.87;100.00;95300.06;2070512;28;20212;-63
2022/02/17 01:41:13;;;;;;;0.80;0.60;;;;;;;8.85;100.00;95318.47;2070941;28;20210;-62
2022/02/17 01:42:15;;;;;;;0.70;0.40;;;;;;;8.82;100.00;95305.69;2071066;28;20205;-61
2022/02/17 01:43:20;;;;;;;0.60;0.40;;;;;;;8.81;100.00;95313.63;2070514;28;20198;-61
2022/02/17 01:44:21;;;;;;;0.80;0.50;;;;;;;8.82;100.00;95312.66;2071345;28;20607;-60
2022/02/17 01:45:23;;;;;;;0.70;0.50;;;;;;;8.84;100.00;95315.97;2071520;28;20474;-59
2022/02/17 01:46:40;;;;;;;1.13;0.50;;;;;;;8.80;100.00;95322.41;2071614;28;20198;-59
2022/02/17 01:47:46;;;;;;;3.70;0.50;;;;;;;8.75;100.00;95294.06;2071496;28;20213;-59
2022/02/17 01:48:47;;;;;;;0.90;0.50;;;;;;;8.78;100.00;95295.59;2071584;28;20637;-59
2022/02/17 01:49:49;;;;;;;0.60;0.40;;;;;;;8.70;100.00;95293.59;2070832;28;20226;-59
2022/02/17 01:50:51;;;;;;;0.90;0.60;;;;;;;8.72;100.00;95307.38;2071015;28;20202;-59
2022/02/17 01:51:52;;;;;;;0.70;0.50;;;;;;;8.73;100.00;95295.97;2070239;28;20201;-59
2022/02/17 01:52:53;;;;;;;0.70;0.50;;;;;;;8.73;100.00;95303.81;2071449;28;20216;-58
2022/02/17 01:53:55;;;;;;;0.70;0.50;;;;;;;8.71;100.00;95290.06;2071833;28;20209;-60
2022/02/17 01:54:57;;;;;;;1.80;0.57;;;;;;;8.70;100.00;95297.06;2075103;28;20221;-59
2022/02/17 01:56:01;;;;;;;0.70;0.50;;;;;;;8.74;100.00;95305.44;2073364;28;20204;-60
2022/02/17 01:57:08;;;;;;;0.70;0.50;;;;;;;8.74;100.00;95291.59;2069843;28;20197;-60
2022/02/17 01:58:10;;;;;;;0.70;0.50;;;;;;;8.79;100.00;95305.91;2071792;28;20204;-60
2022/02/17 01:59:13;;;;;;;0.98;0.65;;;;;;;8.80;100.00;95289.31;2070701;28;20550;-60
2022/02/17 02:00:15;;;;;;;0.80;0.60;;;;;;;8.73;100.00;95282.94;2070611;28;20664;-60
2022/02/17 02:01:17;;;;;;;0.60;0.40;;;;;;;8.76;100.00;95292.28;2070676;28;20554;-60
2022/02/17 02:02:19;;;;;;;0.60;0.40;;;;;;;8.75;100.00;95307.13;2071055;28;20205;-60
2022/02/17 02:03:20;;;;;;;0.60;0.50;;;;;;;8.79;100.00;95305.09;2071510;28;20209;-59
2022/02/17 02:04:22;;;;;;;1.33;0.50;;;;;;;8.78;100.00;95300.81;2071164;28;20233;-59
2022/02/17 02:05:24;;;;;;;0.60;0.40;;;;;;;8.78;100.00;95291.22;2069943;28;20205;-59
2022/02/17 02:06:25;;;;;;;0.60;0.40;;;;;;;8.82;100.00;95299.59;2070542;28;20218;-60
2022/02/17 02:07:27;;;;;;;0.68;0.50;;;;;;;8.74;100.00;95287.19;2071097;28;20201;-60
2022/02/17 02:08:28;;;;;;;0.60;0.40;;;;;;;8.77;100.00;95286.13;2070913;28;20558;-60
2022/02/17 02:09:30;;;;;;;0.60;0.50;;;;;;;8.75;100.00;95299.28;2070963;28;20688;-60
2022/02/17 02:10:32;;;;;;;0.68;0.45;;;;;;;8.77;100.00;95304.41;2067393;28;20201;-60
2022/02/17 02:11:33;;;;;;;1.55;0.50;;;;;;;8.76;100.00;95298.34;2068538;28;20202;-60
2022/02/17 02:12:35;;;;;;;0.85;0.50;;;;;;;8.69;100.00;95298.00;2069926;28;20576;-60
2022/02/17 02:13:36;;;;;;;0.80;0.60;;;;;;;8.71;100.00;95305.72;2070979;28;20250;-60
2022/02/17 02:14:55;;;;;;;0.60;0.40;;;;;;;8.74;100.00;95310.66;2070905;28;20225;-60
2022/02/17 02:15:57;;;;;;;0.70;0.50;;;;;;;8.71;100.00;95287.44;2071579;28;20204;-60
2022/02/17 02:16:59;;;;;;;0.60;0.40;;;;;;;8.71;100.00;95290.06;2068114;28;20244;-60
2022/02/17 02:18:00;;;;;;;1.38;0.60;;;;;;;8.69;100.00;95298.00;2069614;28;20201;-60
2022/02/17 02:19:02;;;;;;;0.80;0.50;;;;;;;8.63;100.00;95287.25;2071281;28;20212;-60
2022/02/17 02:20:07;;;;;;;1.15;0.50;;;;;;;8.60;100.00;95287.50;2070291;28;20217;-60
2022/02/17 02:21:08;;;;;;;1.15;0.57;;;;;;;8.60;100.00;95295.31;2070451;28;20602;-59
2022/02/17 02:22:10;;;;;;;0.80;0.50;;;;;;;8.60;100.00;95288.31;2071589;28;20648;-59
2022/02/17 02:23:11;;;;;;;2.03;0.60;;;;;;;8.60;100.00;95300.53;2071266;28;20202;-59
2022/02/17 02:24:13;;;;;;;1.00;0.50;;;;;;;8.55;100.00;95293.09;2070636;28;20210;-60
2022/02/17 02:25:14;;;;;;;2.67;0.47;;;;;;;8.58;100.00;95300.66;2071531;28;20340;-60
2022/02/17 02:26:16;;;;;;;0.70;0.50;;;;;;;8.57;100.00;95293.81;2068514;28;20527;-60
2022/02/17 02:27:17;;;;;;;0.70;0.50;;;;;;;8.56;100.00;95292.13;2071379;28;20231;-59
2022/02/17 02:28:28;;;;;;;0.60;0.40;;;;;;;8.58;100.00;95285.00;2071599;28;20201;-60
2022/02/17 02:29:30;;;;;;;0.70;0.50;;;;;;;8.59;100.00;95294.50;2070620;28;20224;-59
2022/02/17 02:30:31;;;;;;;0.60;0.45;;;;;;;8.62;100.00;95289.00;2071487;28;20198;-60
2022/02/17 02:31:33;;;;;;;1.10;0.50;;;;;;;8.61;100.00;95292.59;2069668;28;20194;-60
2022/02/17 02:32:34;;;;;;;0.70;0.50;;;;;;;8.62;100.00;95285.59;2067754;28;20197;-60
2022/02/17 02:33:36;;;;;;;1.10;0.50;;;;;;;8.67;100.00;95322.59;2068644;28;20260;-61
2022/02/17 02:34:37;;;;;;;0.73;0.50;;;;;;;8.70;100.00;95298.84;2069161;28;20233;-60
2022/02/17 02:35:39;;;;;;;0.70;0.50;;;;;;;8.64;100.00;95292.31;2070701;28;20613;-60
2022/02/17 02:36:40;;;;;;;2.17;0.50;;;;;;;8.63;100.00;95308.94;2070838;28;20198;-61
2022/02/17 02:37:42;;;;;;;0.70;0.50;;;;;;;8.60;100.00;95288.31;2071972;28;20194;-60
2022/02/17 02:38:43;;;;;;;0.80;0.50;;;;;;;8.65;100.00;95295.78;2069077;28;20277;-60
2022/02/17 02:39:45;;;;;;;1.08;0.50;;;;;;;8.63;100.00;95293.28;2071062;28;20260;-60
2022/02/17 02:40:47;;;;;;;0.70;0.50;;;;;;;8.65;100.00;95290.56;2071554;28;20201;-61
2022/02/17 02:41:49;;;;;;;0.60;0.40;;;;;;;8.69;100.00;95292.78;2071596;28;20598;-61
2022/02/17 02:42:50;;;;;;;0.70;0.43;;;;;;;8.65;100.00;95287.97;2071585;28;20193;-60
2022/02/17 02:43:52;;;;;;;0.60;0.40;;;;;;;8.63;100.00;95279.44;2068578;28;20306;-59
2022/02/17 02:44:53;;;;;;;0.80;0.50;;;;;;;8.67;100.00;95288.66;2065777;28;20586;-60
2022/02/17 02:45:55;;;;;;;0.60;0.40;;;;;;;8.58;100.00;95258.91;2067770;28;20199;-60
2022/02/17 02:46:57;;;;;;;0.60;0.40;;;;;;;8.65;100.00;95277.53;2069058;28;20652;-60
2022/02/17 02:48:04;;;;;;;0.70;0.68;;;;;;;8.66;100.00;95266.97;2070935;28;20209;-60
2022/02/17 02:49:06;;;;;;;0.60;0.40;;;;;;;8.65;100.00;95246.19;2070871;28;20201;-60
2022/02/17 02:50:07;;;;;;;0.60;0.40;;;;;;;8.65;100.00;95248.81;2070676;28;20387;-60
2022/02/17 02:51:09;;;;;;;3.17;0.50;;;;;;;8.67;100.00;95252.13;2071483;28;20198;-60
2022/02/17 02:52:11;;;;;;;0.70;0.50;;;;;;;8.67;100.00;95265.16;2071522;28;20224;-61
2022/02/17 02:53:17;;;;;;;0.60;0.40;;;;;;;8.71;100.00;95256.13;2071311;28;20231;-60
2022/02/17 02:54:19;;;;;;;0.60;0.40;;;;;;;8.74;100.00;95261.06;2070887;28;20221;-61
2022/02/17 02:55:20;;;;;;;1.75;0.60;;;;;;;8.64;100.00;95240.13;2071462;28;20194;-60
2022/02/17 02:56:22;;;;;;;1.55;0.47;;;;;;;8.64;100.00;95241.91;2070778;28;20573;-60
2022/02/17 02:57:25;;;;;;;0.70;0.50;;;;;;;8.62;100.00;95257.69;2070762;28;20287;-60
2022/02/17 02:58:27;;;;;;;1.45;0.50;;;;;;;8.67;100.00;95254.72;2067922;28;20198;-60
2022/02/17 02:59:28;;;;;;;0.70;0.50;;;;;;;8.60;100.00;95266.63;2069873;28;20765;-60
2022/02/17 03:00:30;;;;;;;0.60;0.40;;;;;;;8.60;100.00;95245.75;2071523;28;20201;-60
2022/02/17 03:01:31;;;;;;;0.60;0.40;;;;;;;8.68;100.00;95259.81;2072534;28;20204;-60
2022/02/17 03:02:33;;;;;;;0.60;0.40;;;;;;;8.67;100.00;95260.75;2072828;28;20209;-60
2022/02/17 03:03:35;;;;;;;2.35;0.50;;;;;;;8.79;100.00;95253.72;2072062;28;20641;-60
2022/02/17 03:04:36;;;;;;;0.70;0.52;;;;;;;8.76;100.00;95235.72;2071916;28;20467;-62
2022/02/17 03:05:39;;;;;;;0.70;0.50;;;;;;;8.84;100.00;95238.50;2072523;28;20194;-61
2022/02/17 03:06:41;;;;;;;0.60;0.40;;;;;;;8.88;100.00;95252.13;2070459;28;20193;-61
2022/02/17 03:07:42;;;;;;;0.60;0.50;;;;;;;8.85;100.00;95255.81;2071799;28;20312;-61
2022/02/17 03:08:44;;;;;;;0.60;0.40;;;;;;;8.83;100.00;95249.88;2072455;28;20495;-61
2022/02/17 03:09:46;;;;;;;0.60;0.40;;;;;;;8.77;100.00;95250.41;2071170;28;20236;-61
2022/02/17 03:10:47;;;;;;;0.60;0.45;;;;;;;8.79;100.00;95260.72;2071443;28;20673;-60
2022/02/17 03:11:49;;;;;;;0.70;0.40;;;;;;;8.84;100.00;95248.09;2072532;28;20212;-60
2022/02/17 03:12:50;;;;;;;0.70;0.50;;;;;;;8.79;100.00;95245.88;2070384;28;20206;-60
2022/02/17 03:13:52;;;;;;;0.60;0.40;;;;;;;8.80;100.00;95263.22;2072792;28;20205;-61
2022/02/17 03:14:53;;;;;;;0.70;0.50;;;;;;;8.77;100.00;95253.00;2071379;28;20599;-61
2022/02/17 03:15:55;;;;;;;0.60;0.50;;;;;;;8.81;100.00;95253.59;2072863;28;20201;-61
2022/02/17 03:16:56;;;;;;;0.70;0.40;;;;;;;8.87;100.00;95245.25;2072089;28;20205;-61
2022/02/17 03:17:58;;;;;;;0.60;0.40;;;;;;;8.90;100.00;95261.47;2072854;28;20193;-61
2022/02/17 03:18:59;;;;;;;0.95;0.40;;;;;;;9.01;100.00;95238.88;2071188;28;20201;-61
2022/02/17 03:20:01;;;;;;;0.60;0.40;;;;;;;9.13;100.00;95227.38;2072072;28;20201;-62
2022/02/17 03:21:03;;;;;;;0.60;0.50;;;;;;;9.11;100.00;95258.03;2073847;28;20229;-61
2022/02/17 03:22:04;;;;;;;0.70;0.50;;;;;;;9.02;100.00;95249.19;2072871;28;20667;-61
2022/02/17 03:23:06;;;;;;;2.35;0.40;;;;;;;8.98;100.00;95236.53;2072843;28;20405;-61
2022/02/17 03:24:08;;;;;;;0.60;0.40;;;;;;;9.17;100.00;95251.44;2072214;28;20198;-61
2022/02/17 03:25:11;;;;;;;0.60;0.43;;;;;;;9.09;100.00;95236.44;2072248;28;20206;-61
2022/02/17 03:26:12;;;;;;;0.60;0.40;;;;;;;9.13;100.00;95237.81;2072194;28;20543;-60
2022/02/17 03:27:14;;;;;;;0.77;0.47;;;;;;;9.33;100.00;95241.38;2070267;28;20201;-61
2022/02/17 03:28:15;;;;;;;1.00;0.50;;;;;;;9.37;100.00;95257.59;2071508;28;20653;-61
2022/02/17 03:29:17;;;;;;;0.60;0.40;;;;;;;9.33;100.00;95243.13;2072290;28;20723;-62
2022/02/17 03:30:19;;;;;;;0.60;0.40;;;;;;;9.32;100.00;95231.88;2068601;28;20224;-61
2022/02/17 03:31:20;;;;;;;0.65;0.50;;;;;;;9.26;100.00;95233.22;2072345;28;20288;-62
2022/02/17 03:32:22;;;;;;;0.80;0.50;;;;;;;9.28;100.00;95236.53;2072455;28;20198;-61
2022/02/17 03:33:24;;;;;;;0.60;0.40;;;;;;;9.36;100.00;95229.81;2072568;28;20194;-61
2022/02/17 03:34:26;;;;;;;0.90;0.60;;;;;;;9.42;100.00;95242.38;2071881;28;20723;-61
2022/02/17 03:35:27;;;;;;;0.70;0.40;;;;;;;9.39;100.00;95242.63;2072205;28;20635;-61
2022/02/17 03:36:29;;;;;;;0.60;0.50;;;;;;;9.32;100.00;95247.53;2071893;28;20197;-61
2022/02/17 03:37:33;;;;;;;0.60;0.40;;;;;;;9.37;100.00;95257.59;2072103;28;20251;-61
2022/02/17 03:38:34;;;;;;;0.70;0.40;;;;;;;9.48;99.74;95268.78;2072149;28;20668;-61
2022/02/17 03:39:36;;;;;;;0.80;0.40;;;;;;;9.48;99.03;95247.06;2070609;28;20222;-61
2022/02/17 03:40:38;;;;;;;0.60;0.40;;;;;;;9.65;96.96;95232.56;2072262;28;20576;-61
2022/02/17 03:41:40;;;;;;;0.65;0.43;;;;;;;9.52;97.98;95216.28;2071435;28;20716;-62
2022/02/17 03:42:43;;;;;;;0.60;0.40;;;;;;;9.72;96.61;95248.53;2072717;28;20229;-61
2022/02/17 03:43:44;;;;;;;0.60;0.40;;;;;;;9.73;96.19;95232.72;2076086;28;20507;-61
2022/02/17 03:44:46;;;;;;;0.60;0.40;;;;;;;9.93;93.92;95246.66;2073642;28;20734;-62
2022/02/17 03:45:47;;;;;;;0.70;0.50;;;;;;;9.94;94.60;95245.69;2072296;28;20587;-61
2022/02/17 03:46:49;;;;;;;0.70;0.50;;;;;;;9.85;95.11;95251.72;2071909;28;20198;-61
2022/02/17 03:47:50;;;;;;;0.70;0.50;;;;;;;9.86;94.72;95256.00;2071728;28;20201;-61
2022/02/17 03:48:52;;;;;;;0.60;0.40;;;;;;;9.85;95.30;95256.97;2071679;28;20663;-61
2022/02/17 03:49:53;;;;;;;1.08;0.50;;;;;;;9.84;94.92;95268.38;2072219;28;20233;-61
2022/02/17 03:50:54;;;;;;;0.70;0.40;;;;;;;9.90;94.69;95257.41;2070978;28;20205;-61
2022/02/17 03:51:56;;;;;;;0.70;0.50;;;;;;;9.77;94.31;95228.03;2071843;28;20725;-61
2022/02/17 03:52:57;;;;;;;0.70;0.50;;;;;;;9.95;93.23;95244.72;2072688;28;20561;-61
2022/02/17 03:53:59;;;;;;;0.70;0.40;;;;;;;10.06;92.69;95252.47;2068239;28;20207;-62
2022/02/17 03:55:00;;;;;;;0.63;0.40;;;;;;;10.11;91.76;95241.59;2068238;28;20589;-61
2022/02/17 03:56:02;;;;;;;0.95;0.47;;;;;;;10.04;91.85;95236.09;2071889;28;20317;-62
2022/02/17 03:57:03;;;;;;;0.70;0.50;;;;;;;10.15;90.54;95235.13;2071131;28;20553;-62
2022/02/17 03:58:05;;;;;;;1.10;0.60;;;;;;;10.17;91.67;95237.59;2072369;28;20552;-61
2022/02/17 03:59:08;;;;;;;0.68;0.50;;;;;;;10.19;91.36;95233.06;2072157;28;20209;-61
2022/02/17 04:00:10;;;;;;;0.60;0.50;;;;;;;10.06;92.50;95255.06;2072451;28;20224;-61
2022/02/17 04:01:12;;;;;;;0.82;0.40;;;;;;;9.96;93.04;95266.47;2071152;28;20209;-61
2022/02/17 04:02:13;;;;;;;0.63;0.40;;;;;;;9.94;93.88;95257.94;2072503;28;20205;-61
2022/02/17 04:03:15;;;;;;;4.43;0.52;;;;;;;9.96;92.46;95269.94;2072542;28;20194;-61
2022/02/17 04:04:16;;;;;;;0.60;0.40;;;;;;;9.93;93.68;95245.84;2075157;28;20240;-61
2022/02/17 04:05:19;;;;;;;0.90;0.43;;;;;;;9.81;94.57;95261.63;2074717;28;20213;-61
2022/02/17 04:06:20;;;;;;;0.70;0.50;;;;;;;9.87;93.84;95271.53;2072183;28;20202;-61
2022/02/17 04:07:22;;;;;;;0.70;0.50;;;;;;;9.75;94.88;95270.00;2072590;28;20205;-61
2022/02/17 04:08:28;;;;;;;1.60;0.50;;;;;;;9.83;93.53;95258.88;2070360;28;20201;-62
2022/02/17 04:09:30;;;;;;;0.70;0.40;;;;;;;9.90;92.98;95262.63;2071738;28;20217;-61
2022/02/17 04:10:33;;;;;;;0.60;0.40;;;;;;;9.87;93.24;95263.69;2072452;28;20198;-61
2022/02/17 04:11:35;;;;;;;0.85;0.57;;;;;;;9.84;92.58;95248.28;2072275;28;20198;-61
2022/02/17 04:12:36;;;;;;;0.70;0.50;;;;;;;9.94;92.53;95265.78;2071911;28;20204;-61
2022/02/17 04:13:38;;;;;;;0.93;0.50;;;;;;;9.99;91.94;95269.66;2072470;28;20197;-61
2022/02/17 04:14:40;;;;;;;0.60;0.40;;;;;;;9.93;92.48;95269.38;2072050;28;20228;-61
2022/02/17 04:15:43;;;;;;;1.00;0.50;;;;;;;9.93;92.79;95278.03;2072083;28;20221;-61
2022/02/17 04:16:45;;;;;;;0.80;0.50;;;;;;;9.89;92.73;95267.00;2071426;28;20217;-61
2022/02/17 04:17:46;;;;;;;0.70;0.50;;;;;;;9.79;94.27;95296.72;2070928;28;20197;-60
2022/02/17 04:18:48;;;;;;;0.98;0.80;;;;;;;9.80;94.42;95280.06;2072254;28;20905;-61
2022/02/17 04:19:50;;;;;;;0.70;0.50;;;;;;;9.73;95.14;95302.47;2071757;28;20222;-61
2022/02/17 04:20:52;;;;;;;0.68;0.52;;;;;;;9.59;97.07;95290.59;2072243;28;20600;-61
2022/02/17 04:21:53;;;;;;;0.70;0.52;;;;;;;9.49;98.26;95286.13;2072304;28;20198;-61
2022/02/17 04:22:55;;;;;;;0.70;0.50;;;;;;;9.47;98.65;95290.66;2071960;28;20208;-60
2022/02/17 04:23:58;;;;;;;0.68;0.50;;;;;;;9.36;99.00;95289.91;2071029;28;20194;-61
2022/02/17 04:24:59;;;;;;;3.85;0.82;;;;;;;9.38;100.00;95303.69;2072362;28;20633;-59
2022/02/17 04:26:01;;;;;;;0.70;0.50;;;;;;;9.28;100.00;95293.19;2072382;28;20198;-60
2022/02/17 04:27:02;;;;;;;0.68;0.55;;;;;;;9.28;100.00;95312.28;2072034;28;20205;-60
2022/02/17 04:28:04;;;;;;;0.60;0.40;;;;;;;9.25;100.00;95309.94;2071735;28;20197;-60
2022/02/17 04:29:05;;;;;;;0.70;0.50;;;;;;;9.23;100.00;95284.88;2071471;28;20201;-60
2022/02/17 04:30:07;;;;;;;0.70;0.50;;;;;;;9.28;100.00;95280.94;2071880;28;20245;-59
2022/02/17 04:31:10;;;;;;;0.60;0.40;;;;;;;9.24;100.00;95290.00;2071677;28;20197;-60
2022/02/17 04:32:11;;;;;;;0.60;0.50;;;;;;;9.24;100.00;95299.63;2071927;28;20328;-60
2022/02/17 04:33:13;;;;;;;0.65;0.40;;;;;;;9.21;100.00;95307.69;2071671;28;20202;-60
2022/02/17 04:34:14;;;;;;;0.65;0.47;;;;;;;9.26;100.00;95301.13;2070325;28;20256;-60
2022/02/17 04:35:16;;;;;;;0.93;0.50;;;;;;;9.39;99.37;95289.66;2071353;28;20213;-60
2022/02/17 04:36:17;;;;;;;0.60;0.40;;;;;;;9.39;99.46;95308.78;2071586;28;20198;-61
2022/02/17 04:37:19;;;;;;;0.80;0.40;;;;;;;9.34;99.99;95297.06;2072205;28;20198;-61
2022/02/17 04:38:20;;;;;;;0.60;0.40;;;;;;;9.30;100.00;95306.94;2072232;28;20194;-61
2022/02/17 04:39:22;;;;;;;0.68;0.47;;;;;;;9.30;100.00;95310.38;2071322;28;20222;-61
2022/02/17 04:42:18;;;;;;;0.60;0.40;;;;;;;9.33;100.00;95311.06;2071304;28;20644;-60
2022/02/17 04:43:05;;;;;;;0.70;0.50;;;;;;;9.03;100.00;95274.31;2071332;28;20202;-62
2022/02/17 04:44:06;;;;;;;0.60;0.40;;;;;;;9.36;99.99;95326.50;2071725;28;20227;-62
2022/02/17 04:45:08;;;;;;;1.00;0.50;;;;;;;9.41;99.05;95311.25;2071732;28;20252;-62
2022/02/17 04:46:12;;;;;;;0.60;0.40;;;;;;;9.37;99.74;95317.69;2072105;28;20260;-62
2022/02/17 04:47:13;;;;;;;0.70;0.50;;;;;;;9.34;100.00;95299.69;2070966;28;20217;-62
2022/02/17 04:48:15;;;;;;;0.70;0.50;;;;;;;9.28;99.59;95307.06;2071689;28;20208;-62
2022/02/17 04:49:16;;;;;;;0.82;0.60;;;;;;;9.26;99.59;95292.47;2071211;28;20230;-61
2022/02/17 04:50:18;;;;;;;1.15;0.50;;;;;;;9.43;98.40;95311.97;2071866;28;20375;-61
2022/02/17 04:51:19;;;;;;;0.70;0.50;;;;;;;9.41;97.84;95306.03;2071542;28;20285;-62
2022/02/17 04:52:21;;;;;;;1.10;0.55;;;;;;;9.45;97.27;95282.13;2072164;28;20201;-61
2022/02/17 04:53:23;;;;;;;0.70;0.60;;;;;;;9.48;96.98;95304.56;2070800;28;20664;-62
2022/02/17 04:54:25;;;;;;;1.85;0.50;;;;;;;9.54;96.80;95309.25;2071716;28;20221;-61